sensor_id;sensor_type;location;lat;lon;timestamp;P1;durP1;ratioP1;P2;durP2;ratioP2
57217;SDS011;43078;52.972;6.482;2023-04-25T00:01:59;12.95;;;2.63;;
57217;SDS011;43078;52.972;6.482;2023-04-25T00:04:25;15.82;;;3.13;;
57217;SDS011;43078;52.972;6.482;2023-04-25T00:06:53;16.55;;;3.38;;
57217;SDS011;43078;52.972;6.482;2023-04-25T00:09:19;12.73;;;2.63;;
57217;SDS011;43078;52.972;6.482;2023-04-25T00:11:44;18.67;;;3.38;;
57217;SDS011;43078;52.972;6.482;2023-04-25T00:14:10;11.65;;;2.60;;
57217;SDS011;43078;52.972;6.482;2023-04-25T00:16:36;14.77;;;2.83;;
57217;SDS011;43078;52.972;6.482;2023-04-25T00:19:01;19.27;;;3.13;;
57217;SDS011;43078;52.972;6.482;2023-04-25T00:21:27;14.43;;;3.08;;
57217;SDS011;43078;52.972;6.482;2023-04-25T00:23:53;17.13;;;3.08;;
57217;SDS011;43078;52.972;6.482;2023-04-25T00:26:20;11.07;;;2.70;;
57217;SDS011;43078;52.972;6.482;2023-04-25T00:28:46;14.75;;;3.08;;
57217;SDS011;43078;52.972;6.482;2023-04-25T00:31:12;15.43;;;3.25;;
57217;SDS011;43078;52.972;6.482;2023-04-25T00:33:38;12.20;;;3.28;;
57217;SDS011;43078;52.972;6.482;2023-04-25T00:36:03;13.30;;;3.20;;
57217;SDS011;43078;52.972;6.482;2023-04-25T00:38:30;9.45;;;2.83;;
57217;SDS011;43078;52.972;6.482;2023-04-25T00:40:55;11.10;;;2.97;;
57217;SDS011;43078;52.972;6.482;2023-04-25T00:43:22;17.10;;;3.08;;
57217;SDS011;43078;52.972;6.482;2023-04-25T00:45:50;14.27;;;3.50;;
57217;SDS011;43078;52.972;6.482;2023-04-25T00:48:17;13.95;;;3.17;;
57217;SDS011;43078;52.972;6.482;2023-04-25T00:50:49;13.45;;;2.80;;
57217;SDS011;43078;52.972;6.482;2023-04-25T00:53:18;10.70;;;2.78;;
57217;SDS011;43078;52.972;6.482;2023-04-25T00:55:44;15.45;;;3.15;;
57217;SDS011;43078;52.972;6.482;2023-04-25T00:58:10;13.98;;;3.00;;
57217;SDS011;43078;52.972;6.482;2023-04-25T01:00:36;14.43;;;3.10;;
57217;SDS011;43078;52.972;6.482;2023-04-25T01:03:02;16.77;;;3.42;;
57217;SDS011;43078;52.972;6.482;2023-04-25T01:05:29;9.70;;;2.90;;
57217;SDS011;43078;52.972;6.482;2023-04-25T01:07:54;15.05;;;3.20;;
57217;SDS011;43078;52.972;6.482;2023-04-25T01:10:20;17.33;;;3.45;;
57217;SDS011;43078;52.972;6.482;2023-04-25T01:12:46;14.02;;;3.17;;
57217;SDS011;43078;52.972;6.482;2023-04-25T01:15:12;10.27;;;2.70;;
57217;SDS011;43078;52.972;6.482;2023-04-25T01:17:38;12.73;;;2.85;;
57217;SDS011;43078;52.972;6.482;2023-04-25T01:20:06;17.45;;;3.67;;
57217;SDS011;43078;52.972;6.482;2023-04-25T01:22:34;10.35;;;2.60;;
57217;SDS011;43078;52.972;6.482;2023-04-25T01:25:00;12.73;;;2.58;;
57217;SDS011;43078;52.972;6.482;2023-04-25T01:27:26;10.75;;;2.72;;
57217;SDS011;43078;52.972;6.482;2023-04-25T01:29:53;16.55;;;3.15;;
57217;SDS011;43078;52.972;6.482;2023-04-25T01:32:20;13.65;;;2.95;;
57217;SDS011;43078;52.972;6.482;2023-04-25T01:34:47;11.40;;;2.63;;
57217;SDS011;43078;52.972;6.482;2023-04-25T01:37:13;13.50;;;3.05;;
57217;SDS011;43078;52.972;6.482;2023-04-25T01:39:38;12.73;;;2.78;;
57217;SDS011;43078;52.972;6.482;2023-04-25T01:42:04;14.93;;;3.13;;
57217;SDS011;43078;52.972;6.482;2023-04-25T01:44:30;10.50;;;2.42;;
57217;SDS011;43078;52.972;6.482;2023-04-25T01:46:56;20.15;;;3.85;;
57217;SDS011;43078;52.972;6.482;2023-04-25T01:49:21;17.30;;;3.20;;
57217;SDS011;43078;52.972;6.482;2023-04-25T01:51:47;13.70;;;2.97;;
57217;SDS011;43078;52.972;6.482;2023-04-25T01:54:13;11.85;;;2.88;;
57217;SDS011;43078;52.972;6.482;2023-04-25T01:56:39;12.00;;;2.63;;
57217;SDS011;43078;52.972;6.482;2023-04-25T01:59:05;13.27;;;2.85;;
57217;SDS011;43078;52.972;6.482;2023-04-25T02:01:31;11.77;;;2.80;;
57217;SDS011;43078;52.972;6.482;2023-04-25T02:03:57;13.35;;;2.75;;
57217;SDS011;43078;52.972;6.482;2023-04-25T02:06:22;12.43;;;2.60;;
57217;SDS011;43078;52.972;6.482;2023-04-25T02:08:48;17.70;;;3.08;;
57217;SDS011;43078;52.972;6.482;2023-04-25T02:11:14;13.07;;;3.10;;
57217;SDS011;43078;52.972;6.482;2023-04-25T02:13:39;13.65;;;2.67;;
57217;SDS011;43078;52.972;6.482;2023-04-25T02:16:05;10.70;;;3.15;;
57217;SDS011;43078;52.972;6.482;2023-04-25T02:18:31;16.00;;;2.78;;
57217;SDS011;43078;52.972;6.482;2023-04-25T02:20:58;16.25;;;2.92;;
57217;SDS011;43078;52.972;6.482;2023-04-25T02:23:24;11.40;;;2.35;;
57217;SDS011;43078;52.972;6.482;2023-04-25T02:25:50;12.07;;;2.67;;
57217;SDS011;43078;52.972;6.482;2023-04-25T02:28:16;14.57;;;2.75;;
57217;SDS011;43078;52.972;6.482;2023-04-25T02:30:42;10.10;;;2.60;;
57217;SDS011;43078;52.972;6.482;2023-04-25T02:33:07;18.17;;;2.65;;
57217;SDS011;43078;52.972;6.482;2023-04-25T02:35:33;15.00;;;2.85;;
57217;SDS011;43078;52.972;6.482;2023-04-25T02:37:59;11.82;;;2.53;;
57217;SDS011;43078;52.972;6.482;2023-04-25T02:40:24;11.77;;;2.50;;
57217;SDS011;43078;52.972;6.482;2023-04-25T02:42:50;17.23;;;2.63;;
57217;SDS011;43078;52.972;6.482;2023-04-25T02:45:16;16.15;;;2.88;;
57217;SDS011;43078;52.972;6.482;2023-04-25T02:47:42;10.90;;;2.67;;
57217;SDS011;43078;52.972;6.482;2023-04-25T02:50:07;15.20;;;2.67;;
57217;SDS011;43078;52.972;6.482;2023-04-25T02:52:33;14.20;;;2.88;;
57217;SDS011;43078;52.972;6.482;2023-04-25T02:54:59;11.00;;;2.30;;
57217;SDS011;43078;52.972;6.482;2023-04-25T02:57:24;12.07;;;2.78;;
57217;SDS011;43078;52.972;6.482;2023-04-25T02:59:50;12.05;;;2.40;;
57217;SDS011;43078;52.972;6.482;2023-04-25T03:02:16;15.80;;;2.90;;
57217;SDS011;43078;52.972;6.482;2023-04-25T03:04:41;12.35;;;2.65;;
57217;SDS011;43078;52.972;6.482;2023-04-25T03:07:07;10.27;;;2.20;;
57217;SDS011;43078;52.972;6.482;2023-04-25T03:09:33;15.40;;;2.45;;
57217;SDS011;43078;52.972;6.482;2023-04-25T03:11:59;15.40;;;2.40;;
57217;SDS011;43078;52.972;6.482;2023-04-25T03:14:25;15.82;;;2.78;;
57217;SDS011;43078;52.972;6.482;2023-04-25T03:16:50;14.07;;;2.55;;
57217;SDS011;43078;52.972;6.482;2023-04-25T03:19:16;14.43;;;2.78;;
57217;SDS011;43078;52.972;6.482;2023-04-25T03:21:42;13.25;;;2.30;;
57217;SDS011;43078;52.972;6.482;2023-04-25T03:24:08;13.77;;;2.17;;
57217;SDS011;43078;52.972;6.482;2023-04-25T03:26:35;11.02;;;2.40;;
57217;SDS011;43078;52.972;6.482;2023-04-25T03:29:01;8.85;;;2.00;;
57217;SDS011;43078;52.972;6.482;2023-04-25T03:31:27;10.95;;;2.10;;
57217;SDS011;43078;52.972;6.482;2023-04-25T03:33:53;8.63;;;1.63;;
57217;SDS011;43078;52.972;6.482;2023-04-25T03:36:18;9.00;;;1.90;;
57217;SDS011;43078;52.972;6.482;2023-04-25T03:38:44;9.80;;;1.77;;
57217;SDS011;43078;52.972;6.482;2023-04-25T03:41:10;8.38;;;1.70;;
57217;SDS011;43078;52.972;6.482;2023-04-25T03:43:36;9.30;;;1.85;;
57217;SDS011;43078;52.972;6.482;2023-04-25T03:46:01;14.27;;;2.08;;
57217;SDS011;43078;52.972;6.482;2023-04-25T03:48:27;9.73;;;1.73;;
57217;SDS011;43078;52.972;6.482;2023-04-25T03:50:53;9.23;;;1.92;;
57217;SDS011;43078;52.972;6.482;2023-04-25T03:53:19;8.52;;;2.00;;
57217;SDS011;43078;52.972;6.482;2023-04-25T03:55:45;9.38;;;1.88;;
57217;SDS011;43078;52.972;6.482;2023-04-25T03:58:10;6.70;;;1.67;;
57217;SDS011;43078;52.972;6.482;2023-04-25T04:00:36;10.60;;;1.90;;
57217;SDS011;43078;52.972;6.482;2023-04-25T04:03:02;11.25;;;1.90;;
57217;SDS011;43078;52.972;6.482;2023-04-25T04:05:27;7.53;;;1.55;;
57217;SDS011;43078;52.972;6.482;2023-04-25T04:07:53;7.28;;;1.70;;
57217;SDS011;43078;52.972;6.482;2023-04-25T04:10:19;8.52;;;2.20;;
57217;SDS011;43078;52.972;6.482;2023-04-25T04:12:45;8.88;;;1.40;;
57217;SDS011;43078;52.972;6.482;2023-04-25T04:15:10;7.20;;;1.77;;
57217;SDS011;43078;52.972;6.482;2023-04-25T04:17:36;9.88;;;2.00;;
57217;SDS011;43078;52.972;6.482;2023-04-25T04:20:02;5.82;;;1.52;;
57217;SDS011;43078;52.972;6.482;2023-04-25T04:22:28;8.13;;;1.60;;
57217;SDS011;43078;52.972;6.482;2023-04-25T04:24:54;5.80;;;1.40;;
57217;SDS011;43078;52.972;6.482;2023-04-25T04:27:22;8.27;;;1.67;;
57217;SDS011;43078;52.972;6.482;2023-04-25T04:29:48;8.18;;;1.90;;
57217;SDS011;43078;52.972;6.482;2023-04-25T04:32:15;12.65;;;1.83;;
57217;SDS011;43078;52.972;6.482;2023-04-25T04:34:42;10.25;;;1.52;;
57217;SDS011;43078;52.972;6.482;2023-04-25T04:37:07;12.70;;;1.92;;
57217;SDS011;43078;52.972;6.482;2023-04-25T04:39:34;10.05;;;1.67;;
57217;SDS011;43078;52.972;6.482;2023-04-25T04:42:00;6.78;;;1.63;;
57217;SDS011;43078;52.972;6.482;2023-04-25T04:44:30;6.25;;;1.65;;
57217;SDS011;43078;52.972;6.482;2023-04-25T04:46:59;5.95;;;1.45;;
57217;SDS011;43078;52.972;6.482;2023-04-25T04:49:25;7.65;;;1.50;;
57217;SDS011;43078;52.972;6.482;2023-04-25T04:51:51;8.48;;;1.48;;
57217;SDS011;43078;52.972;6.482;2023-04-25T04:54:17;9.40;;;1.73;;
57217;SDS011;43078;52.972;6.482;2023-04-25T04:56:42;6.20;;;1.60;;
57217;SDS011;43078;52.972;6.482;2023-04-25T04:59:08;12.10;;;2.08;;
57217;SDS011;43078;52.972;6.482;2023-04-25T05:01:34;9.80;;;2.00;;
57217;SDS011;43078;52.972;6.482;2023-04-25T05:04:02;7.43;;;1.55;;
57217;SDS011;43078;52.972;6.482;2023-04-25T05:06:28;10.55;;;1.90;;
57217;SDS011;43078;52.972;6.482;2023-04-25T05:08:55;6.43;;;1.63;;
57217;SDS011;43078;52.972;6.482;2023-04-25T05:11:21;7.18;;;1.60;;
57217;SDS011;43078;52.972;6.482;2023-04-25T05:13:48;5.57;;;1.30;;
57217;SDS011;43078;52.972;6.482;2023-04-25T05:16:14;9.90;;;1.75;;
57217;SDS011;43078;52.972;6.482;2023-04-25T05:18:40;9.35;;;1.65;;
57217;SDS011;43078;52.972;6.482;2023-04-25T05:21:06;9.45;;;1.83;;
57217;SDS011;43078;52.972;6.482;2023-04-25T05:23:32;7.22;;;1.67;;
57217;SDS011;43078;52.972;6.482;2023-04-25T05:25:58;7.38;;;1.80;;
57217;SDS011;43078;52.972;6.482;2023-04-25T05:28:24;10.68;;;2.88;;
57217;SDS011;43078;52.972;6.482;2023-04-25T05:30:49;9.82;;;2.53;;
57217;SDS011;43078;52.972;6.482;2023-04-25T05:33:15;6.80;;;1.70;;
57217;SDS011;43078;52.972;6.482;2023-04-25T05:35:41;11.45;;;2.30;;
57217;SDS011;43078;52.972;6.482;2023-04-25T05:38:07;10.82;;;1.90;;
57217;SDS011;43078;52.972;6.482;2023-04-25T05:40:33;6.90;;;1.55;;
57217;SDS011;43078;52.972;6.482;2023-04-25T05:42:58;8.38;;;1.80;;
57217;SDS011;43078;52.972;6.482;2023-04-25T05:45:24;8.70;;;1.70;;
57217;SDS011;43078;52.972;6.482;2023-04-25T05:47:50;8.02;;;1.88;;
57217;SDS011;43078;52.972;6.482;2023-04-25T05:50:15;12.43;;;1.98;;
57217;SDS011;43078;52.972;6.482;2023-04-25T05:52:41;7.35;;;1.88;;
57217;SDS011;43078;52.972;6.482;2023-04-25T05:55:07;14.45;;;2.50;;
57217;SDS011;43078;52.972;6.482;2023-04-25T05:57:33;10.60;;;1.80;;
57217;SDS011;43078;52.972;6.482;2023-04-25T05:59:58;9.75;;;1.98;;
57217;SDS011;43078;52.972;6.482;2023-04-25T06:02:24;9.07;;;1.85;;
57217;SDS011;43078;52.972;6.482;2023-04-25T06:04:50;14.30;;;2.60;;
57217;SDS011;43078;52.972;6.482;2023-04-25T06:07:16;13.00;;;2.20;;
57217;SDS011;43078;52.972;6.482;2023-04-25T06:09:43;12.27;;;2.17;;
57217;SDS011;43078;52.972;6.482;2023-04-25T06:12:09;9.65;;;2.00;;
57217;SDS011;43078;52.972;6.482;2023-04-25T06:14:34;16.27;;;2.10;;
57217;SDS011;43078;52.972;6.482;2023-04-25T06:17:00;15.18;;;2.35;;
57217;SDS011;43078;52.972;6.482;2023-04-25T06:19:34;11.73;;;1.85;;
57217;SDS011;43078;52.972;6.482;2023-04-25T06:22:01;9.18;;;1.98;;
57217;SDS011;43078;52.972;6.482;2023-04-25T06:24:27;11.77;;;1.85;;
57217;SDS011;43078;52.972;6.482;2023-04-25T06:26:53;9.40;;;1.88;;
57217;SDS011;43078;52.972;6.482;2023-04-25T06:29:19;7.32;;;1.67;;
57217;SDS011;43078;52.972;6.482;2023-04-25T06:31:44;13.07;;;1.95;;
57217;SDS011;43078;52.972;6.482;2023-04-25T06:34:10;8.77;;;1.80;;
57217;SDS011;43078;52.972;6.482;2023-04-25T06:36:35;12.77;;;1.90;;
57217;SDS011;43078;52.972;6.482;2023-04-25T06:39:01;11.23;;;1.58;;
57217;SDS011;43078;52.972;6.482;2023-04-25T06:41:27;8.27;;;1.58;;
57217;SDS011;43078;52.972;6.482;2023-04-25T06:43:53;7.60;;;1.73;;
57217;SDS011;43078;52.972;6.482;2023-04-25T06:46:18;12.20;;;2.05;;
57217;SDS011;43078;52.972;6.482;2023-04-25T06:48:44;8.07;;;1.50;;
57217;SDS011;43078;52.972;6.482;2023-04-25T06:51:10;10.88;;;1.95;;
57217;SDS011;43078;52.972;6.482;2023-04-25T06:53:35;11.30;;;2.03;;
57217;SDS011;43078;52.972;6.482;2023-04-25T06:56:01;8.50;;;1.60;;
57217;SDS011;43078;52.972;6.482;2023-04-25T06:58:28;11.52;;;1.70;;
57217;SDS011;43078;52.972;6.482;2023-04-25T07:00:53;9.20;;;1.52;;
57217;SDS011;43078;52.972;6.482;2023-04-25T07:03:19;11.50;;;2.10;;
57217;SDS011;43078;52.972;6.482;2023-04-25T07:05:45;13.68;;;1.90;;
57217;SDS011;43078;52.972;6.482;2023-04-25T07:08:12;11.52;;;1.80;;
57217;SDS011;43078;52.972;6.482;2023-04-25T07:10:37;9.18;;;2.00;;
57217;SDS011;43078;52.972;6.482;2023-04-25T07:13:03;10.95;;;1.60;;
57217;SDS011;43078;52.972;6.482;2023-04-25T07:15:29;8.75;;;1.50;;
57217;SDS011;43078;52.972;6.482;2023-04-25T07:17:54;7.30;;;1.50;;
57217;SDS011;43078;52.972;6.482;2023-04-25T07:20:20;10.80;;;1.65;;
57217;SDS011;43078;52.972;6.482;2023-04-25T07:22:46;9.20;;;1.50;;
57217;SDS011;43078;52.972;6.482;2023-04-25T07:25:11;7.57;;;1.38;;
57217;SDS011;43078;52.972;6.482;2023-04-25T07:27:37;9.23;;;1.73;;
57217;SDS011;43078;52.972;6.482;2023-04-25T07:30:03;7.78;;;1.42;;
57217;SDS011;43078;52.972;6.482;2023-04-25T07:32:29;8.02;;;1.65;;
57217;SDS011;43078;52.972;6.482;2023-04-25T07:34:55;9.65;;;1.50;;
57217;SDS011;43078;52.972;6.482;2023-04-25T07:37:21;11.23;;;1.70;;
57217;SDS011;43078;52.972;6.482;2023-04-25T07:39:46;12.45;;;1.67;;
57217;SDS011;43078;52.972;6.482;2023-04-25T07:42:12;8.45;;;1.65;;
57217;SDS011;43078;52.972;6.482;2023-04-25T07:44:38;9.98;;;1.73;;
57217;SDS011;43078;52.972;6.482;2023-04-25T07:47:08;9.13;;;1.85;;
57217;SDS011;43078;52.972;6.482;2023-04-25T07:49:37;13.32;;;2.20;;
57217;SDS011;43078;52.972;6.482;2023-04-25T07:52:03;11.70;;;1.63;;
57217;SDS011;43078;52.972;6.482;2023-04-25T07:54:31;9.65;;;1.75;;
57217;SDS011;43078;52.972;6.482;2023-04-25T07:56:57;9.45;;;1.60;;
57217;SDS011;43078;52.972;6.482;2023-04-25T07:59:23;12.82;;;1.60;;
57217;SDS011;43078;52.972;6.482;2023-04-25T08:01:49;9.13;;;1.50;;
57217;SDS011;43078;52.972;6.482;2023-04-25T08:04:15;9.45;;;1.98;;
57217;SDS011;43078;52.972;6.482;2023-04-25T08:06:41;10.20;;;1.75;;
57217;SDS011;43078;52.972;6.482;2023-04-25T08:09:07;11.27;;;2.05;;
57217;SDS011;43078;52.972;6.482;2023-04-25T08:11:34;9.18;;;1.85;;
57217;SDS011;43078;52.972;6.482;2023-04-25T08:14:01;10.32;;;1.50;;
57217;SDS011;43078;52.972;6.482;2023-04-25T08:16:27;8.85;;;1.48;;
57217;SDS011;43078;52.972;6.482;2023-04-25T08:18:53;9.18;;;1.48;;
57217;SDS011;43078;52.972;6.482;2023-04-25T08:21:18;6.78;;;1.77;;
57217;SDS011;43078;52.972;6.482;2023-04-25T08:23:45;8.52;;;1.33;;
57217;SDS011;43078;52.972;6.482;2023-04-25T08:26:11;7.45;;;1.35;;
57217;SDS011;43078;52.972;6.482;2023-04-25T08:28:36;10.10;;;1.30;;
57217;SDS011;43078;52.972;6.482;2023-04-25T08:31:02;8.77;;;1.60;;
57217;SDS011;43078;52.972;6.482;2023-04-25T08:33:28;12.32;;;1.67;;
57217;SDS011;43078;52.972;6.482;2023-04-25T08:35:54;5.60;;;1.23;;
57217;SDS011;43078;52.972;6.482;2023-04-25T08:38:19;9.05;;;1.50;;
57217;SDS011;43078;52.972;6.482;2023-04-25T08:40:46;8.43;;;1.50;;
57217;SDS011;43078;52.972;6.482;2023-04-25T08:43:15;14.57;;;1.90;;
57217;SDS011;43078;52.972;6.482;2023-04-25T08:45:44;10.75;;;1.50;;
57217;SDS011;43078;52.972;6.482;2023-04-25T08:48:11;9.32;;;1.75;;
57217;SDS011;43078;52.972;6.482;2023-04-25T08:50:39;10.23;;;1.50;;
57217;SDS011;43078;52.972;6.482;2023-04-25T08:53:22;10.07;;;1.65;;
57217;SDS011;43078;52.972;6.482;2023-04-25T08:55:52;7.80;;;1.52;;
57217;SDS011;43078;52.972;6.482;2023-04-25T08:58:19;7.70;;;1.05;;
57217;SDS011;43078;52.972;6.482;2023-04-25T09:00:49;6.93;;;1.15;;
57217;SDS011;43078;52.972;6.482;2023-04-25T09:03:16;8.63;;;1.30;;
57217;SDS011;43078;52.972;6.482;2023-04-25T09:05:42;9.77;;;1.20;;
57217;SDS011;43078;52.972;6.482;2023-04-25T09:08:08;6.35;;;1.10;;
57217;SDS011;43078;52.972;6.482;2023-04-25T09:10:33;6.10;;;1.05;;
57217;SDS011;43078;52.972;6.482;2023-04-25T09:13:06;8.05;;;1.40;;
57217;SDS011;43078;52.972;6.482;2023-04-25T09:15:52;7.22;;;1.40;;
57217;SDS011;43078;52.972;6.482;2023-04-25T09:18:29;6.70;;;1.08;;
57217;SDS011;43078;52.972;6.482;2023-04-25T09:21:06;9.10;;;1.20;;
57217;SDS011;43078;52.972;6.482;2023-04-25T09:23:48;6.95;;;1.25;;
57217;SDS011;43078;52.972;6.482;2023-04-25T09:26:17;10.52;;;1.27;;
57217;SDS011;43078;52.972;6.482;2023-04-25T09:28:44;5.63;;;1.27;;
57217;SDS011;43078;52.972;6.482;2023-04-25T09:31:20;6.82;;;1.10;;
57217;SDS011;43078;52.972;6.482;2023-04-25T09:33:48;6.65;;;1.30;;
57217;SDS011;43078;52.972;6.482;2023-04-25T09:36:14;6.45;;;1.30;;
57217;SDS011;43078;52.972;6.482;2023-04-25T09:38:44;9.70;;;1.52;;
57217;SDS011;43078;52.972;6.482;2023-04-25T09:41:11;5.70;;;1.30;;
57217;SDS011;43078;52.972;6.482;2023-04-25T09:43:37;6.68;;;1.45;;
57217;SDS011;43078;52.972;6.482;2023-04-25T09:46:10;8.75;;;1.63;;
57217;SDS011;43078;52.972;6.482;2023-04-25T09:48:36;10.20;;;1.80;;
57217;SDS011;43078;52.972;6.482;2023-04-25T09:51:14;10.63;;;1.60;;
57217;SDS011;43078;52.972;6.482;2023-04-25T09:53:41;8.43;;;1.55;;
57217;SDS011;43078;52.972;6.482;2023-04-25T09:56:08;6.15;;;1.40;;
57217;SDS011;43078;52.972;6.482;2023-04-25T09:58:35;6.43;;;1.30;;
57217;SDS011;43078;52.972;6.482;2023-04-25T10:01:03;9.18;;;1.55;;
57217;SDS011;43078;52.972;6.482;2023-04-25T10:03:32;10.32;;;1.42;;
57217;SDS011;43078;52.972;6.482;2023-04-25T10:06:02;8.30;;;1.40;;
57217;SDS011;43078;52.972;6.482;2023-04-25T10:08:31;7.95;;;1.83;;
57217;SDS011;43078;52.972;6.482;2023-04-25T10:11:02;7.50;;;1.60;;
57217;SDS011;43078;52.972;6.482;2023-04-25T10:13:33;9.20;;;1.60;;
57217;SDS011;43078;52.972;6.482;2023-04-25T10:16:01;9.35;;;1.15;;
57217;SDS011;43078;52.972;6.482;2023-04-25T10:18:28;7.63;;;1.50;;
57217;SDS011;43078;52.972;6.482;2023-04-25T10:20:59;9.27;;;1.60;;
57217;SDS011;43078;52.972;6.482;2023-04-25T10:23:26;12.25;;;1.63;;
57217;SDS011;43078;52.972;6.482;2023-04-25T10:25:54;6.85;;;1.40;;
57217;SDS011;43078;52.972;6.482;2023-04-25T10:28:20;10.30;;;1.65;;
57217;SDS011;43078;52.972;6.482;2023-04-25T10:36:13;9.65;;;1.58;;
57217;SDS011;43078;52.972;6.482;2023-04-25T10:38:43;9.60;;;1.70;;
57217;SDS011;43078;52.972;6.482;2023-04-25T10:41:10;9.43;;;1.55;;
57217;SDS011;43078;52.972;6.482;2023-04-25T10:43:38;8.25;;;1.63;;
57217;SDS011;43078;52.972;6.482;2023-04-25T10:48:50;8.75;;;1.23;;
57217;SDS011;43078;52.972;6.482;2023-04-25T10:51:17;6.85;;;1.23;;
57217;SDS011;43078;52.972;6.482;2023-04-25T10:53:56;7.15;;;1.20;;
57217;SDS011;43078;52.972;6.482;2023-04-25T10:56:23;5.47;;;0.98;;
57217;SDS011;43078;52.972;6.482;2023-04-25T10:59:10;6.68;;;1.10;;
57217;SDS011;43078;52.972;6.482;2023-04-25T11:01:41;5.50;;;1.25;;
57217;SDS011;43078;52.972;6.482;2023-04-25T11:04:22;7.22;;;1.30;;
57217;SDS011;43078;52.972;6.482;2023-04-25T11:06:58;5.22;;;1.13;;
57217;SDS011;43078;52.972;6.482;2023-04-25T11:09:35;7.43;;;1.30;;
57217;SDS011;43078;52.972;6.482;2023-04-25T11:12:02;6.65;;;1.17;;
57217;SDS011;43078;52.972;6.482;2023-04-25T11:14:28;6.30;;;1.08;;
57217;SDS011;43078;52.972;6.482;2023-04-25T11:16:54;5.22;;;1.10;;
57217;SDS011;43078;52.972;6.482;2023-04-25T11:19:21;7.13;;;1.00;;
57217;SDS011;43078;52.972;6.482;2023-04-25T11:21:48;4.18;;;1.13;;
57217;SDS011;43078;52.972;6.482;2023-04-25T11:24:13;5.10;;;1.13;;
57217;SDS011;43078;52.972;6.482;2023-04-25T11:26:41;6.15;;;1.17;;
57217;SDS011;43078;52.972;6.482;2023-04-25T11:29:07;7.50;;;1.10;;
57217;SDS011;43078;52.972;6.482;2023-04-25T11:31:33;5.78;;;1.13;;
57217;SDS011;43078;52.972;6.482;2023-04-25T11:33:59;6.07;;;1.10;;
57217;SDS011;43078;52.972;6.482;2023-04-25T11:36:26;8.18;;;1.58;;
57217;SDS011;43078;52.972;6.482;2023-04-25T11:38:52;8.63;;;1.45;;
57217;SDS011;43078;52.972;6.482;2023-04-25T11:41:21;9.57;;;1.40;;
57217;SDS011;43078;52.972;6.482;2023-04-25T11:43:47;8.48;;;1.58;;
57217;SDS011;43078;52.972;6.482;2023-04-25T11:46:15;12.73;;;1.70;;
57217;SDS011;43078;52.972;6.482;2023-04-25T11:48:41;10.10;;;1.50;;
57217;SDS011;43078;52.972;6.482;2023-04-25T11:51:07;10.52;;;1.50;;
57217;SDS011;43078;52.972;6.482;2023-04-25T11:53:33;8.25;;;1.33;;
57217;SDS011;43078;52.972;6.482;2023-04-25T11:56:00;9.23;;;1.55;;
57217;SDS011;43078;52.972;6.482;2023-04-25T11:58:26;9.55;;;1.50;;
57217;SDS011;43078;52.972;6.482;2023-04-25T12:00:52;12.27;;;1.73;;
57217;SDS011;43078;52.972;6.482;2023-04-25T12:03:18;10.52;;;2.03;;
57217;SDS011;43078;52.972;6.482;2023-04-25T12:05:44;12.00;;;1.58;;
57217;SDS011;43078;52.972;6.482;2023-04-25T12:08:14;9.75;;;1.48;;
57217;SDS011;43078;52.972;6.482;2023-04-25T12:10:41;10.88;;;1.80;;
57217;SDS011;43078;52.972;6.482;2023-04-25T12:13:17;10.18;;;1.77;;
57217;SDS011;43078;52.972;6.482;2023-04-25T12:15:47;11.75;;;1.98;;
57217;SDS011;43078;52.972;6.482;2023-04-25T12:18:13;9.25;;;1.80;;
57217;SDS011;43078;52.972;6.482;2023-04-25T12:20:39;9.68;;;1.63;;
57217;SDS011;43078;52.972;6.482;2023-04-25T12:23:06;8.30;;;1.33;;
57217;SDS011;43078;52.972;6.482;2023-04-25T12:25:40;5.57;;;1.23;;
57217;SDS011;43078;52.972;6.482;2023-04-25T12:33:25;8.00;;;1.60;;
57217;SDS011;43078;52.972;6.482;2023-04-25T12:35:53;7.70;;;1.30;;
57217;SDS011;43078;52.972;6.482;2023-04-25T12:40:52;8.68;;;1.17;;
57217;SDS011;43078;52.972;6.482;2023-04-25T12:43:18;8.82;;;1.60;;
57217;SDS011;43078;52.972;6.482;2023-04-25T12:45:44;11.48;;;1.42;;
57217;SDS011;43078;52.972;6.482;2023-04-25T12:48:15;8.07;;;1.60;;
57217;SDS011;43078;52.972;6.482;2023-04-25T12:50:40;8.57;;;1.77;;
57217;SDS011;43078;52.972;6.482;2023-04-25T12:53:06;10.70;;;1.50;;
57217;SDS011;43078;52.972;6.482;2023-04-25T12:55:31;8.38;;;1.50;;
57217;SDS011;43078;52.972;6.482;2023-04-25T12:57:57;8.02;;;1.35;;
57217;SDS011;43078;52.972;6.482;2023-04-25T13:00:23;6.45;;;1.38;;
57217;SDS011;43078;52.972;6.482;2023-04-25T13:02:48;6.18;;;1.45;;
57217;SDS011;43078;52.972;6.482;2023-04-25T13:05:14;8.18;;;1.25;;
57217;SDS011;43078;52.972;6.482;2023-04-25T13:07:40;10.15;;;1.40;;
57217;SDS011;43078;52.972;6.482;2023-04-25T13:10:06;8.18;;;1.33;;
57217;SDS011;43078;52.972;6.482;2023-04-25T13:12:32;7.55;;;1.50;;
57217;SDS011;43078;52.972;6.482;2023-04-25T13:14:58;7.43;;;1.52;;
57217;SDS011;43078;52.972;6.482;2023-04-25T13:17:23;8.50;;;1.40;;
57217;SDS011;43078;52.972;6.482;2023-04-25T13:19:49;7.38;;;1.40;;
57217;SDS011;43078;52.972;6.482;2023-04-25T13:22:15;9.45;;;1.73;;
57217;SDS011;43078;52.972;6.482;2023-04-25T13:24:42;8.65;;;1.77;;
57217;SDS011;43078;52.972;6.482;2023-04-25T13:27:08;8.55;;;1.50;;
57217;SDS011;43078;52.972;6.482;2023-04-25T13:29:33;9.70;;;1.80;;
57217;SDS011;43078;52.972;6.482;2023-04-25T13:32:01;7.80;;;1.50;;
57217;SDS011;43078;52.972;6.482;2023-04-25T13:34:27;11.88;;;1.50;;
57217;SDS011;43078;52.972;6.482;2023-04-25T13:36:53;10.07;;;1.58;;
57217;SDS011;43078;52.972;6.482;2023-04-25T13:39:19;6.07;;;1.33;;
57217;SDS011;43078;52.972;6.482;2023-04-25T13:41:45;7.90;;;1.55;;
57217;SDS011;43078;52.972;6.482;2023-04-25T13:44:10;7.63;;;1.50;;
57217;SDS011;43078;52.972;6.482;2023-04-25T13:46:36;6.85;;;1.70;;
57217;SDS011;43078;52.972;6.482;2023-04-25T13:49:02;8.95;;;1.38;;
57217;SDS011;43078;52.972;6.482;2023-04-25T13:51:28;8.20;;;1.30;;
57217;SDS011;43078;52.972;6.482;2023-04-25T13:53:55;5.93;;;1.40;;
57217;SDS011;43078;52.972;6.482;2023-04-25T13:56:21;6.20;;;1.10;;
57217;SDS011;43078;52.972;6.482;2023-04-25T13:58:48;8.52;;;1.30;;
57217;SDS011;43078;52.972;6.482;2023-04-25T14:01:15;8.07;;;1.27;;
57217;SDS011;43078;52.972;6.482;2023-04-25T14:03:40;6.38;;;1.33;;
57217;SDS011;43078;52.972;6.482;2023-04-25T14:06:06;9.38;;;1.50;;
57217;SDS011;43078;52.972;6.482;2023-04-25T14:08:33;10.75;;;1.60;;
57217;SDS011;43078;52.972;6.482;2023-04-25T14:10:59;7.28;;;1.67;;
57217;SDS011;43078;52.972;6.482;2023-04-25T14:13:25;11.80;;;1.52;;
57217;SDS011;43078;52.972;6.482;2023-04-25T14:15:51;6.35;;;1.50;;
57217;SDS011;43078;52.972;6.482;2023-04-25T14:18:17;10.20;;;1.60;;
57217;SDS011;43078;52.972;6.482;2023-04-25T14:20:44;8.43;;;1.48;;
57217;SDS011;43078;52.972;6.482;2023-04-25T14:23:10;7.65;;;1.50;;
57217;SDS011;43078;52.972;6.482;2023-04-25T14:25:36;6.68;;;1.30;;
57217;SDS011;43078;52.972;6.482;2023-04-25T14:28:02;7.63;;;1.20;;
57217;SDS011;43078;52.972;6.482;2023-04-25T14:30:27;7.88;;;1.60;;
57217;SDS011;43078;52.972;6.482;2023-04-25T14:32:53;8.68;;;1.50;;
57217;SDS011;43078;52.972;6.482;2023-04-25T14:35:19;11.23;;;1.40;;
57217;SDS011;43078;52.972;6.482;2023-04-25T14:37:45;7.07;;;1.48;;
57217;SDS011;43078;52.972;6.482;2023-04-25T14:40:11;9.43;;;1.60;;
57217;SDS011;43078;52.972;6.482;2023-04-25T14:42:38;8.85;;;1.70;;
57217;SDS011;43078;52.972;6.482;2023-04-25T14:45:05;14.20;;;2.33;;
57217;SDS011;43078;52.972;6.482;2023-04-25T14:47:32;10.10;;;1.80;;
57217;SDS011;43078;52.972;6.482;2023-04-25T14:49:58;11.98;;;1.70;;
57217;SDS011;43078;52.972;6.482;2023-04-25T14:52:24;11.35;;;1.70;;
57217;SDS011;43078;52.972;6.482;2023-04-25T14:54:52;10.45;;;1.85;;